CEB497 RPVI-RPLL
Flight info
| Callsign | CEB497 |
|---|---|
| Flight time | 1h 7m |
| Altitude | 27000 |
| Route | LAMBO1S LAMBO B472 IBAGO IBAGO5R |
| Aircraft | A320/M-SDE3FGHIRWY/LB1 |
Departure
| Time | 2026-05-06 17:50 |
|---|---|
| Airport | Iloilo International Airport (RPVI) |
Arrival
| Time | 2026-05-06 18:57 |
|---|---|
| Airport | Ninoy Aquino International Airport (RPLL) |
| Time | Latitude | Longitude | Altitude | Speed | Heading |
|---|---|---|---|---|---|
| 2026-05-06 17:23 | 10.83113 | 122.49655 | 140 ft | 0 kts | 110° |
| 2026-05-06 17:36 | 10.83120 | 122.49632 | 140 ft | 2 kts | 108° |
| 2026-05-06 17:36 | 10.83125 | 122.49616 | 140 ft | 2 kts | 106° |
| 2026-05-06 17:36 | 10.83130 | 122.49600 | 140 ft | 2 kts | 102° |
| 2026-05-06 17:36 | 10.83133 | 122.49584 | 140 ft | 2 kts | 93° |
| 2026-05-06 17:37 | 10.83131 | 122.49567 | 140 ft | 2 kts | 53° |
| 2026-05-06 17:37 | 10.83121 | 122.49559 | 140 ft | 1 kts | 21° |
| 2026-05-06 17:37 | 10.83120 | 122.49558 | 140 ft | 0 kts | 20° |
| 2026-05-06 17:41 | 10.83132 | 122.49563 | 140 ft | 5 kts | 21° |
| 2026-05-06 17:42 | 10.83163 | 122.49575 | 140 ft | 5 kts | 20° |
| 2026-05-06 17:42 | 10.83186 | 122.49583 | 140 ft | 3 kts | 20° |
| 2026-05-06 17:42 | 10.83204 | 122.49590 | 140 ft | 6 kts | 19° |
| 2026-05-06 17:42 | 10.83256 | 122.49609 | 140 ft | 9 kts | 20° |
| 2026-05-06 17:43 | 10.83307 | 122.49629 | 140 ft | 7 kts | 19° |
| 2026-05-06 17:43 | 10.83335 | 122.49638 | 140 ft | 6 kts | 19° |
| 2026-05-06 17:43 | 10.83392 | 122.49660 | 140 ft | 10 kts | 21° |
| 2026-05-06 17:43 | 10.83440 | 122.49675 | 140 ft | 11 kts | 10° |
| 2026-05-06 17:44 | 10.83506 | 122.49624 | 140 ft | 9 kts | 291° |
| 2026-05-06 17:44 | 10.83520 | 122.49589 | 140 ft | 7 kts | 291° |
| 2026-05-06 17:44 | 10.83534 | 122.49549 | 140 ft | 5 kts | 289° |
| 2026-05-06 17:44 | 10.83554 | 122.49495 | 141 ft | 12 kts | 291° |
| 2026-05-06 17:45 | 10.83647 | 122.49462 | 141 ft | 16 kts | 19° |
| 2026-05-06 17:45 | 10.83724 | 122.49491 | 140 ft | 19 kts | 19° |
| 2026-05-06 17:45 | 10.83851 | 122.49537 | 140 ft | 19 kts | 18° |
| 2026-05-06 17:45 | 10.83980 | 122.49585 | 139 ft | 20 kts | 20° |
| 2026-05-06 17:46 | 10.84114 | 122.49634 | 138 ft | 21 kts | 20° |
| 2026-05-06 17:46 | 10.84228 | 122.49672 | 139 ft | 14 kts | 9° |
| 2026-05-06 17:46 | 10.84326 | 122.49698 | 140 ft | 13 kts | 21° |
| 2026-05-06 17:46 | 10.84339 | 122.49746 | 139 ft | 8 kts | 147° |
| 2026-05-06 17:47 | 10.84307 | 122.49726 | 139 ft | 5 kts | 245° |
| 2026-05-06 17:47 | 10.84296 | 122.49702 | 139 ft | 4 kts | 231° |
| 2026-05-06 17:47 | 10.84278 | 122.49693 | 139 ft | 0 kts | 197° |
| 2026-05-06 17:48 | 10.84274 | 122.49692 | 139 ft | 3 kts | 198° |
| 2026-05-06 17:48 | 10.84167 | 122.49653 | 138 ft | 42 kts | 201° |
| 2026-05-06 17:49 | 10.83716 | 122.49487 | 140 ft | 95 kts | 200° |
| 2026-05-06 17:49 | 10.82966 | 122.49209 | 141 ft | 133 kts | 199° |
| 2026-05-06 17:49 | 10.82004 | 122.48834 | 180 ft | 162 kts | 200° |
| 2026-05-06 17:49 | 10.80887 | 122.48411 | 577 ft | 177 kts | 200° |
| 2026-05-06 17:50 | 10.79711 | 122.47978 | 1172 ft | 183 kts | 199° |
| 2026-05-06 17:50 | 10.78508 | 122.47543 | 1661 ft | 187 kts | 206° |
| 2026-05-06 17:50 | 10.77626 | 122.46577 | 1878 ft | 193 kts | 258° |
| 2026-05-06 17:50 | 10.77712 | 122.45272 | 2213 ft | 187 kts | 302° |
| 2026-05-06 17:51 | 10.78571 | 122.44309 | 2493 ft | 187 kts | 336° |
| 2026-05-06 17:51 | 10.79827 | 122.43914 | 2715 ft | 195 kts | 352° |
| 2026-05-06 17:51 | 10.81216 | 122.43600 | 2866 ft | 214 kts | 351° |
| 2026-05-06 17:51 | 10.82715 | 122.43252 | 3206 ft | 226 kts | 350° |
| 2026-05-06 17:52 | 10.84265 | 122.42881 | 3720 ft | 231 kts | 349° |
| 2026-05-06 17:52 | 10.85838 | 122.42500 | 4267 ft | 234 kts | 349° |
| 2026-05-06 17:52 | 10.87428 | 122.42112 | 4820 ft | 237 kts | 349° |
| 2026-05-06 17:52 | 10.89040 | 122.41718 | 5376 ft | 240 kts | 349° |
| 2026-05-06 17:53 | 10.90670 | 122.41319 | 5934 ft | 243 kts | 350° |
| 2026-05-06 17:53 | 10.92298 | 122.40921 | 6465 ft | 246 kts | 350° |
| 2026-05-06 17:53 | 10.93972 | 122.40510 | 6986 ft | 248 kts | 350° |
| 2026-05-06 17:53 | 10.95663 | 122.40096 | 7505 ft | 252 kts | 350° |
| 2026-05-06 17:54 | 10.97376 | 122.39677 | 8017 ft | 255 kts | 350° |
| 2026-05-06 17:54 | 10.99117 | 122.39255 | 8532 ft | 259 kts | 350° |
| 2026-05-06 17:54 | 11.00880 | 122.38829 | 9025 ft | 263 kts | 350° |
| 2026-05-06 17:54 | 11.02674 | 122.38395 | 9534 ft | 267 kts | 350° |
| 2026-05-06 17:55 | 11.04516 | 122.37948 | 10016 ft | 271 kts | 349° |
| 2026-05-06 17:55 | 11.06358 | 122.37496 | 10485 ft | 274 kts | 349° |
| 2026-05-06 17:55 | 11.08224 | 122.37038 | 10919 ft | 277 kts | 349° |
| 2026-05-06 17:55 | 11.10106 | 122.36576 | 11266 ft | 280 kts | 349° |
| 2026-05-06 17:56 | 11.12014 | 122.36110 | 11691 ft | 284 kts | 349° |
| 2026-05-06 17:56 | 11.13922 | 122.35646 | 12140 ft | 287 kts | 349° |
| 2026-05-06 17:56 | 11.15873 | 122.35166 | 12621 ft | 290 kts | 347° |
| 2026-05-06 17:56 | 11.17789 | 122.34426 | 12929 ft | 302 kts | 339° |
| 2026-05-06 17:57 | 11.19780 | 122.33567 | 13091 ft | 318 kts | 339° |
| 2026-05-06 17:57 | 11.21861 | 122.32664 | 13234 ft | 334 kts | 339° |
| 2026-05-06 17:57 | 11.24047 | 122.31712 | 13365 ft | 349 kts | 339° |
| 2026-05-06 17:57 | 11.26330 | 122.30720 | 13489 ft | 364 kts | 339° |
| 2026-05-06 17:58 | 11.28701 | 122.29690 | 13644 ft | 376 kts | 339° |
| 2026-05-06 17:58 | 11.31128 | 122.28637 | 13979 ft | 382 kts | 339° |
| 2026-05-06 17:58 | 11.33587 | 122.27570 | 14395 ft | 385 kts | 339° |
| 2026-05-06 17:58 | 11.36051 | 122.26502 | 14810 ft | 387 kts | 339° |
| 2026-05-06 17:59 | 11.38539 | 122.25425 | 15221 ft | 389 kts | 339° |
| 2026-05-06 17:59 | 11.41042 | 122.24343 | 15647 ft | 392 kts | 339° |
| 2026-05-06 17:59 | 11.43553 | 122.23256 | 16049 ft | 394 kts | 339° |
| 2026-05-06 17:59 | 11.46085 | 122.22158 | 16446 ft | 396 kts | 339° |
| 2026-05-06 18:00 | 11.48626 | 122.21054 | 16844 ft | 399 kts | 339° |
| 2026-05-06 18:00 | 11.51185 | 122.19940 | 17239 ft | 401 kts | 339° |
| 2026-05-06 18:00 | 11.53757 | 122.18821 | 17618 ft | 403 kts | 339° |
| 2026-05-06 18:00 | 11.56346 | 122.17695 | 17984 ft | 405 kts | 339° |
| 2026-05-06 18:01 | 11.58951 | 122.16565 | 18336 ft | 408 kts | 339° |
| 2026-05-06 18:01 | 11.61564 | 122.15432 | 18654 ft | 410 kts | 339° |
| 2026-05-06 18:01 | 11.64198 | 122.14290 | 18997 ft | 412 kts | 339° |
| 2026-05-06 18:01 | 11.66839 | 122.13143 | 19340 ft | 413 kts | 339° |
| 2026-05-06 18:02 | 11.69494 | 122.11992 | 19671 ft | 415 kts | 339° |
| 2026-05-06 18:02 | 11.72159 | 122.10837 | 19998 ft | 417 kts | 339° |
| 2026-05-06 18:02 | 11.74837 | 122.09673 | 20319 ft | 419 kts | 339° |
| 2026-05-06 18:02 | 11.77522 | 122.08504 | 20637 ft | 421 kts | 339° |
| 2026-05-06 18:03 | 11.80224 | 122.07328 | 20957 ft | 423 kts | 339° |
| 2026-05-06 18:03 | 11.82931 | 122.06149 | 21272 ft | 424 kts | 339° |
| 2026-05-06 18:03 | 11.85656 | 122.04961 | 21585 ft | 426 kts | 339° |
| 2026-05-06 18:03 | 11.88386 | 122.03769 | 21879 ft | 428 kts | 339° |
| 2026-05-06 18:04 | 11.91126 | 122.02575 | 22157 ft | 429 kts | 338° |
| 2026-05-06 18:04 | 11.93874 | 122.01378 | 22461 ft | 431 kts | 339° |
| 2026-05-06 18:04 | 11.96642 | 122.00176 | 22741 ft | 432 kts | 339° |
| 2026-05-06 18:04 | 11.99413 | 121.98974 | 23016 ft | 434 kts | 339° |
| 2026-05-06 18:05 | 12.02162 | 121.97779 | 23282 ft | 435 kts | 339° |
| 2026-05-06 18:05 | 12.04992 | 121.96548 | 23528 ft | 437 kts | 338° |
| 2026-05-06 18:05 | 12.07788 | 121.95328 | 23747 ft | 438 kts | 338° |
| 2026-05-06 18:05 | 12.10596 | 121.94100 | 23967 ft | 439 kts | 338° |
| 2026-05-06 18:06 | 12.13372 | 121.92884 | 24170 ft | 441 kts | 338° |
| 2026-05-06 18:06 | 12.16192 | 121.91650 | 24387 ft | 442 kts | 338° |
| 2026-05-06 18:06 | 12.19023 | 121.90413 | 24625 ft | 442 kts | 338° |
| 2026-05-06 18:06 | 12.21850 | 121.89178 | 24857 ft | 442 kts | 338° |
| 2026-05-06 18:07 | 12.24685 | 121.87942 | 25070 ft | 443 kts | 338° |
| 2026-05-06 18:07 | 12.27526 | 121.86706 | 25276 ft | 444 kts | 338° |
| 2026-05-06 18:07 | 12.30377 | 121.85464 | 25473 ft | 445 kts | 338° |
| 2026-05-06 18:07 | 12.33233 | 121.84218 | 25671 ft | 446 kts | 338° |
| 2026-05-06 18:08 | 12.36090 | 121.82970 | 25875 ft | 447 kts | 338° |
| 2026-05-06 18:08 | 12.38953 | 121.81721 | 26056 ft | 448 kts | 338° |
| 2026-05-06 18:08 | 12.41828 | 121.80462 | 26256 ft | 450 kts | 337° |
| 2026-05-06 18:08 | 12.44705 | 121.79199 | 26437 ft | 451 kts | 337° |
| 2026-05-06 18:09 | 12.47587 | 121.77935 | 26623 ft | 452 kts | 337° |
| 2026-05-06 18:09 | 12.50481 | 121.76668 | 26798 ft | 452 kts | 337° |
| 2026-05-06 18:09 | 12.52391 | 121.75832 | 26846 ft | 449 kts | 337° |
| 2026-05-06 18:09 | 12.55799 | 121.74339 | 26864 ft | 440 kts | 337° |
| 2026-05-06 18:10 | 12.58606 | 121.73108 | 26865 ft | 440 kts | 337° |
| 2026-05-06 18:10 | 12.61399 | 121.71880 | 26698 ft | 432 kts | 337° |
| 2026-05-06 18:10 | 12.64136 | 121.70680 | 26461 ft | 421 kts | 337° |
| 2026-05-06 18:10 | 12.66772 | 121.69525 | 26228 ft | 411 kts | 337° |
| 2026-05-06 18:11 | 12.69380 | 121.68382 | 25990 ft | 407 kts | 337° |
| 2026-05-06 18:11 | 12.71979 | 121.67242 | 25768 ft | 406 kts | 338° |
| 2026-05-06 18:11 | 12.74576 | 121.66102 | 25542 ft | 405 kts | 338° |
| 2026-05-06 18:11 | 12.77160 | 121.64966 | 25309 ft | 404 kts | 338° |
| 2026-05-06 18:12 | 12.79741 | 121.63830 | 25085 ft | 403 kts | 338° |
| 2026-05-06 18:12 | 12.82315 | 121.62698 | 24863 ft | 401 kts | 338° |
| 2026-05-06 18:12 | 12.84881 | 121.61571 | 24638 ft | 400 kts | 338° |
| 2026-05-06 18:12 | 12.87440 | 121.60449 | 24416 ft | 399 kts | 338° |
| 2026-05-06 18:13 | 12.89989 | 121.59331 | 24197 ft | 399 kts | 338° |
| 2026-05-06 18:13 | 12.92502 | 121.58228 | 23987 ft | 397 kts | 338° |
| 2026-05-06 18:13 | 12.95036 | 121.57113 | 23769 ft | 396 kts | 338° |
| 2026-05-06 18:13 | 12.97568 | 121.56000 | 23554 ft | 395 kts | 338° |
| 2026-05-06 18:14 | 13.00091 | 121.54889 | 23322 ft | 394 kts | 338° |
| 2026-05-06 18:14 | 13.02604 | 121.53784 | 23061 ft | 393 kts | 338° |
| 2026-05-06 18:14 | 13.05108 | 121.52683 | 22810 ft | 391 kts | 338° |
| 2026-05-06 18:14 | 13.07607 | 121.51584 | 22561 ft | 390 kts | 338° |
| 2026-05-06 18:15 | 13.10093 | 121.50491 | 22308 ft | 388 kts | 338° |
| 2026-05-06 18:15 | 13.12570 | 121.49400 | 22058 ft | 387 kts | 338° |
| 2026-05-06 18:15 | 13.15038 | 121.48310 | 21812 ft | 385 kts | 338° |
| 2026-05-06 18:15 | 13.17490 | 121.47227 | 21569 ft | 384 kts | 338° |
| 2026-05-06 18:16 | 13.19948 | 121.46143 | 21324 ft | 383 kts | 338° |
| 2026-05-06 18:16 | 13.22389 | 121.45066 | 21081 ft | 381 kts | 338° |
| 2026-05-06 18:16 | 13.24824 | 121.43991 | 20845 ft | 380 kts | 338° |
| 2026-05-06 18:16 | 13.27250 | 121.42923 | 20613 ft | 379 kts | 338° |
| 2026-05-06 18:17 | 13.29668 | 121.41859 | 20373 ft | 378 kts | 338° |
| 2026-05-06 18:17 | 13.32051 | 121.40809 | 20141 ft | 377 kts | 338° |
| 2026-05-06 18:17 | 13.34453 | 121.39750 | 19910 ft | 375 kts | 338° |
| 2026-05-06 18:17 | 13.36043 | 121.39049 | 19760 ft | 375 kts | 338° |
| 2026-05-06 18:18 | 13.37724 | 121.38302 | 19596 ft | 374 kts | 338° |
| 2026-05-06 18:18 | 13.40108 | 121.37245 | 19368 ft | 373 kts | 338° |
| 2026-05-06 18:18 | 13.42494 | 121.36195 | 19143 ft | 372 kts | 338° |
| 2026-05-06 18:19 | 13.44864 | 121.35154 | 18920 ft | 370 kts | 338° |
| 2026-05-06 18:19 | 13.47231 | 121.34111 | 18699 ft | 369 kts | 338° |
| 2026-05-06 18:19 | 13.49558 | 121.33086 | 18479 ft | 368 kts | 338° |
| 2026-05-06 18:19 | 13.51918 | 121.31988 | 18258 ft | 367 kts | 333° |
| 2026-05-06 18:20 | 13.54069 | 121.30620 | 18017 ft | 361 kts | 324° |
| 2026-05-06 18:20 | 13.55976 | 121.28988 | 17759 ft | 354 kts | 317° |
| 2026-05-06 18:20 | 13.57641 | 121.27152 | 17504 ft | 347 kts | 312° |
| 2026-05-06 18:20 | 13.59217 | 121.25307 | 17261 ft | 341 kts | 312° |
| 2026-05-06 18:21 | 13.60783 | 121.23480 | 17026 ft | 340 kts | 312° |
| 2026-05-06 18:21 | 13.62326 | 121.21682 | 16773 ft | 339 kts | 312° |
| 2026-05-06 18:21 | 13.63878 | 121.19868 | 16530 ft | 338 kts | 312° |
| 2026-05-06 18:21 | 13.65425 | 121.18059 | 16290 ft | 337 kts | 312° |
| 2026-05-06 18:22 | 13.66968 | 121.16256 | 16050 ft | 335 kts | 312° |
| 2026-05-06 18:22 | 13.68528 | 121.14432 | 15807 ft | 334 kts | 312° |
| 2026-05-06 18:22 | 13.70059 | 121.12643 | 15572 ft | 333 kts | 312° |
| 2026-05-06 18:22 | 13.71568 | 121.10880 | 15340 ft | 332 kts | 312° |
| 2026-05-06 18:23 | 13.73093 | 121.09097 | 15108 ft | 331 kts | 312° |
| 2026-05-06 18:23 | 13.74608 | 121.07323 | 14872 ft | 330 kts | 312° |
| 2026-05-06 18:23 | 13.76124 | 121.05547 | 14644 ft | 329 kts | 312° |
| 2026-05-06 18:23 | 13.77630 | 121.03784 | 14419 ft | 328 kts | 312° |
| 2026-05-06 18:24 | 13.79192 | 121.02082 | 14191 ft | 327 kts | 319° |
| 2026-05-06 18:24 | 13.80953 | 121.00617 | 13968 ft | 325 kts | 327° |
| 2026-05-06 18:24 | 13.82885 | 120.99426 | 13747 ft | 323 kts | 335° |
| 2026-05-06 18:24 | 13.84943 | 120.98514 | 13498 ft | 321 kts | 342° |
| 2026-05-06 18:25 | 13.87082 | 120.97892 | 13244 ft | 318 kts | 350° |
| 2026-05-06 18:25 | 13.89261 | 120.97568 | 12999 ft | 316 kts | 356° |
| 2026-05-06 18:25 | 13.91442 | 120.97342 | 12747 ft | 314 kts | 356° |
| 2026-05-06 18:25 | 13.93614 | 120.97112 | 12493 ft | 313 kts | 356° |
| 2026-05-06 18:26 | 13.95776 | 120.96881 | 12245 ft | 312 kts | 355° |
| 2026-05-06 18:26 | 13.97926 | 120.96652 | 12020 ft | 310 kts | 356° |
| 2026-05-06 18:26 | 14.00070 | 120.96425 | 11776 ft | 309 kts | 356° |
| 2026-05-06 18:26 | 14.02202 | 120.96200 | 11538 ft | 308 kts | 356° |
| 2026-05-06 18:27 | 14.04327 | 120.95975 | 11307 ft | 306 kts | 356° |
| 2026-05-06 18:27 | 14.06440 | 120.95752 | 11070 ft | 305 kts | 356° |
| 2026-05-06 18:27 | 14.08547 | 120.95530 | 10837 ft | 304 kts | 356° |
| 2026-05-06 18:27 | 14.10646 | 120.95305 | 10601 ft | 302 kts | 356° |
| 2026-05-06 18:28 | 14.12732 | 120.95083 | 10266 ft | 300 kts | 356° |
| 2026-05-06 18:28 | 14.14768 | 120.94868 | 10077 ft | 286 kts | 356° |
| 2026-05-06 18:28 | 14.16514 | 120.94581 | 9816 ft | 276 kts | 347° |
| 2026-05-06 18:28 | 14.18325 | 120.93932 | 9378 ft | 275 kts | 336° |
| 2026-05-06 18:29 | 14.19943 | 120.93009 | 9201 ft | 259 kts | 332° |
| 2026-05-06 18:29 | 14.21471 | 120.92093 | 8839 ft | 251 kts | 332° |
| 2026-05-06 18:29 | 14.22983 | 120.91197 | 8391 ft | 251 kts | 332° |
| 2026-05-06 18:29 | 14.23977 | 120.90595 | 8181 ft | 250 kts | 328° |
| 2026-05-06 18:30 | 14.25207 | 120.89341 | 7887 ft | 250 kts | 303° |
| 2026-05-06 18:30 | 14.25863 | 120.87696 | 7537 ft | 250 kts | 279° |
| 2026-05-06 18:30 | 14.25847 | 120.85914 | 7176 ft | 250 kts | 256° |
| 2026-05-06 18:30 | 14.25188 | 120.84275 | 6827 ft | 248 kts | 238° |
| 2026-05-06 18:31 | 14.24318 | 120.82731 | 6472 ft | 249 kts | 239° |
| 2026-05-06 18:31 | 14.23455 | 120.81189 | 6140 ft | 248 kts | 239° |
| 2026-05-06 18:31 | 14.22619 | 120.79640 | 5789 ft | 247 kts | 246° |
| 2026-05-06 18:31 | 14.22250 | 120.77936 | 5458 ft | 243 kts | 272° |
| 2026-05-06 18:32 | 14.22562 | 120.76245 | 5113 ft | 240 kts | 296° |
| 2026-05-06 18:32 | 14.23478 | 120.74830 | 4993 ft | 238 kts | 319° |
| 2026-05-06 18:32 | 14.24814 | 120.73849 | 5008 ft | 235 kts | 333° |
| 2026-05-06 18:32 | 14.26231 | 120.73021 | 5006 ft | 235 kts | 333° |
| 2026-05-06 18:33 | 14.27657 | 120.72189 | 5008 ft | 235 kts | 333° |
| 2026-05-06 18:33 | 14.29082 | 120.71359 | 5004 ft | 235 kts | 333° |
| 2026-05-06 18:33 | 14.30565 | 120.70704 | 4996 ft | 228 kts | 353° |
| 2026-05-06 18:33 | 14.32113 | 120.70709 | 5005 ft | 222 kts | 17° |
| 2026-05-06 18:34 | 14.33448 | 120.71320 | 5007 ft | 220 kts | 39° |
| 2026-05-06 18:34 | 14.34455 | 120.72479 | 5013 ft | 217 kts | 61° |
| 2026-05-06 18:34 | 14.35206 | 120.73836 | 5010 ft | 218 kts | 61° |
| 2026-05-06 18:34 | 14.35931 | 120.75136 | 5040 ft | 198 kts | 61° |
| 2026-05-06 18:35 | 14.36594 | 120.76323 | 4934 ft | 186 kts | 61° |
| 2026-05-06 18:35 | 14.37225 | 120.77455 | 4761 ft | 184 kts | 60° |
| 2026-05-06 18:35 | 14.37861 | 120.78594 | 4545 ft | 183 kts | 60° |
| 2026-05-06 18:35 | 14.38481 | 120.79707 | 4322 ft | 173 kts | 61° |
| 2026-05-06 18:36 | 14.39062 | 120.80749 | 4112 ft | 166 kts | 61° |
| 2026-05-06 18:36 | 14.39643 | 120.81792 | 3887 ft | 165 kts | 61° |
| 2026-05-06 18:36 | 14.40212 | 120.82813 | 3691 ft | 163 kts | 61° |
| 2026-05-06 18:36 | 14.40777 | 120.83827 | 3473 ft | 163 kts | 62° |
| 2026-05-06 18:37 | 14.41334 | 120.84827 | 3274 ft | 163 kts | 61° |
| 2026-05-06 18:37 | 14.41896 | 120.85835 | 3066 ft | 162 kts | 61° |
| 2026-05-06 18:37 | 14.42456 | 120.86841 | 2854 ft | 161 kts | 62° |
| 2026-05-06 18:37 | 14.43013 | 120.87842 | 2660 ft | 161 kts | 61° |
| 2026-05-06 18:38 | 14.43571 | 120.88844 | 2443 ft | 160 kts | 60° |
| 2026-05-06 18:38 | 14.44124 | 120.89836 | 2243 ft | 159 kts | 61° |
| 2026-05-06 18:38 | 14.44677 | 120.90830 | 2034 ft | 159 kts | 60° |
| 2026-05-06 18:38 | 14.45222 | 120.91809 | 1828 ft | 158 kts | 61° |
| 2026-05-06 18:39 | 14.45772 | 120.92798 | 1622 ft | 158 kts | 61° |
| 2026-05-06 18:39 | 14.46319 | 120.93781 | 1415 ft | 157 kts | 61° |
| 2026-05-06 18:39 | 14.46866 | 120.94765 | 1213 ft | 158 kts | 60° |
| 2026-05-06 18:40 | 14.47961 | 120.96733 | 808 ft | 158 kts | 61° |
| 2026-05-06 18:40 | 14.48507 | 120.97714 | 593 ft | 157 kts | 61° |
| 2026-05-06 18:40 | 14.49051 | 120.98692 | 383 ft | 157 kts | 61° |
| 2026-05-06 18:40 | 14.49593 | 120.99667 | 214 ft | 157 kts | 60° |
| 2026-05-06 18:41 | 14.50130 | 121.00628 | 88 ft | 148 kts | 60° |
| 2026-05-06 18:41 | 14.50685 | 121.01605 | 332 ft | 169 kts | 60° |
| 2026-05-06 18:41 | 14.51308 | 121.02698 | 931 ft | 184 kts | 60° |
| 2026-05-06 18:41 | 14.51979 | 121.03891 | 1516 ft | 199 kts | 60° |
| 2026-05-06 18:42 | 14.52668 | 121.05151 | 2006 ft | 204 kts | 61° |
| 2026-05-06 18:42 | 14.53374 | 121.06471 | 2295 ft | 220 kts | 61° |
| 2026-05-06 18:42 | 14.54143 | 121.07914 | 2617 ft | 237 kts | 61° |
| 2026-05-06 18:42 | 14.54948 | 121.09420 | 3269 ft | 240 kts | 61° |
| 2026-05-06 18:43 | 14.55759 | 121.10929 | 3966 ft | 242 kts | 61° |
| 2026-05-06 18:43 | 14.56582 | 121.12458 | 4591 ft | 246 kts | 61° |
| 2026-05-06 18:43 | 14.57362 | 121.14041 | 5189 ft | 249 kts | 72° |
| 2026-05-06 18:43 | 14.57554 | 121.15806 | 5778 ft | 252 kts | 97° |
| 2026-05-06 18:44 | 14.56967 | 121.17511 | 5968 ft | 256 kts | 123° |
| 2026-05-06 18:44 | 14.55707 | 121.18798 | 6007 ft | 258 kts | 149° |
| 2026-05-06 18:44 | 14.54032 | 121.19480 | 6013 ft | 260 kts | 161° |
| 2026-05-06 18:44 | 14.52258 | 121.19870 | 6012 ft | 262 kts | 173° |
| 2026-05-06 18:45 | 14.50480 | 121.19705 | 6010 ft | 264 kts | 197° |
| 2026-05-06 18:45 | 14.48818 | 121.18726 | 6013 ft | 285 kts | 224° |
| 2026-05-06 18:45 | 14.47733 | 121.17021 | 6018 ft | 302 kts | 250° |
| 2026-05-06 18:45 | 14.47034 | 121.14885 | 6006 ft | 325 kts | 252° |
| 2026-05-06 18:46 | 14.46336 | 121.12653 | 6009 ft | 326 kts | 252° |
| 2026-05-06 18:46 | 14.45647 | 121.10424 | 6012 ft | 327 kts | 252° |
| 2026-05-06 18:46 | 14.44956 | 121.08187 | 6011 ft | 327 kts | 252° |
| 2026-05-06 18:46 | 14.44261 | 121.05948 | 6011 ft | 327 kts | 252° |
| 2026-05-06 18:47 | 14.43564 | 121.03717 | 6010 ft | 328 kts | 252° |
| 2026-05-06 18:47 | 14.42860 | 121.01476 | 6012 ft | 328 kts | 252° |
| 2026-05-06 18:47 | 14.42153 | 120.99237 | 5902 ft | 327 kts | 252° |
| 2026-05-06 18:47 | 14.41450 | 120.97016 | 5485 ft | 324 kts | 252° |
| 2026-05-06 18:48 | 14.40750 | 120.94806 | 5001 ft | 323 kts | 252° |
| 2026-05-06 18:48 | 14.40056 | 120.92619 | 4596 ft | 320 kts | 252° |
| 2026-05-06 18:48 | 14.39364 | 120.90429 | 4492 ft | 321 kts | 252° |
| 2026-05-06 18:48 | 14.38673 | 120.88235 | 4511 ft | 320 kts | 252° |
| 2026-05-06 18:49 | 14.37999 | 120.86094 | 4506 ft | 303 kts | 252° |
| 2026-05-06 18:49 | 14.37380 | 120.84128 | 4513 ft | 273 kts | 252° |
| 2026-05-06 18:49 | 14.36822 | 120.82362 | 4505 ft | 246 kts | 252° |
| 2026-05-06 18:49 | 14.36308 | 120.80741 | 4491 ft | 235 kts | 252° |
| 2026-05-06 18:50 | 14.35848 | 120.79131 | 4198 ft | 233 kts | 264° |
| 2026-05-06 18:50 | 14.35976 | 120.77520 | 3932 ft | 218 kts | 291° |
| 2026-05-06 18:50 | 14.36688 | 120.76245 | 3785 ft | 197 kts | 317° |
| 2026-05-06 18:50 | 14.37852 | 120.75680 | 3415 ft | 181 kts | 358° |
| 2026-05-06 18:51 | 14.39068 | 120.75497 | 3102 ft | 175 kts | 356° |
| 2026-05-06 18:51 | 14.40270 | 120.75614 | 3061 ft | 178 kts | 24° |
| 2026-05-06 18:51 | 14.41216 | 120.76371 | 2995 ft | 176 kts | 59° |
| 2026-05-06 18:51 | 14.41488 | 120.77556 | 2884 ft | 171 kts | 95° |
| 2026-05-06 18:52 | 14.41399 | 120.78783 | 2539 ft | 174 kts | 89° |
| 2026-05-06 18:52 | 14.41395 | 120.79989 | 2510 ft | 165 kts | 89° |
| 2026-05-06 18:52 | 14.41393 | 120.81177 | 2534 ft | 165 kts | 89° |
| 2026-05-06 18:52 | 14.41391 | 120.82355 | 2521 ft | 161 kts | 89° |
| 2026-05-06 18:53 | 14.41389 | 120.83503 | 2513 ft | 159 kts | 88° |
| 2026-05-06 18:53 | 14.41560 | 120.84628 | 2513 ft | 159 kts | 73° |
| 2026-05-06 18:53 | 14.41956 | 120.85699 | 2509 ft | 159 kts | 66° |
| 2026-05-06 18:53 | 14.42444 | 120.86722 | 2509 ft | 159 kts | 63° |
| 2026-05-06 18:54 | 14.42973 | 120.87730 | 2506 ft | 160 kts | 62° |
| 2026-05-06 18:54 | 14.43515 | 120.88728 | 2408 ft | 159 kts | 60° |
| 2026-05-06 18:54 | 14.44062 | 120.89719 | 2240 ft | 162 kts | 61° |
| 2026-05-06 18:54 | 14.44614 | 120.90714 | 2047 ft | 158 kts | 60° |
| 2026-05-06 18:55 | 14.45159 | 120.91694 | 1847 ft | 157 kts | 60° |
| 2026-05-06 18:55 | 14.45702 | 120.92672 | 1656 ft | 157 kts | 61° |
| 2026-05-06 18:55 | 14.46246 | 120.93650 | 1444 ft | 156 kts | 61° |
| 2026-05-06 18:55 | 14.46782 | 120.94613 | 1241 ft | 157 kts | 60° |
| 2026-05-06 18:56 | 14.47326 | 120.95591 | 1045 ft | 157 kts | 61° |
| 2026-05-06 18:56 | 14.47876 | 120.96580 | 833 ft | 158 kts | 61° |
| 2026-05-06 18:56 | 14.48412 | 120.97544 | 632 ft | 157 kts | 62° |
| 2026-05-06 18:56 | 14.48951 | 120.98516 | 423 ft | 156 kts | 60° |
| 2026-05-06 18:57 | 14.49490 | 120.99485 | 260 ft | 156 kts | 61° |
| 2026-05-06 18:57 | 14.50028 | 121.00443 | 85 ft | 149 kts | 60° |
| 2026-05-06 18:57 | 14.50476 | 121.01252 | 68 ft | 97 kts | 59° |
| 2026-05-06 18:57 | 14.50710 | 121.01663 | 66 ft | 43 kts | 55° |
| 2026-05-06 18:58 | 14.50836 | 121.01773 | 64 ft | 9 kts | 42° |
| 2026-05-06 18:58 | 14.50897 | 121.01774 | 66 ft | 8 kts | 309° |
| 2026-05-06 18:58 | 14.50932 | 121.01740 | 68 ft | 6 kts | 320° |
| 2026-05-06 18:58 | 14.50959 | 121.01717 | 64 ft | 4 kts | 319° |
| 2026-05-06 18:59 | 14.50980 | 121.01695 | 62 ft | 8 kts | 314° |
| 2026-05-06 18:59 | 14.51019 | 121.01655 | 62 ft | 8 kts | 314° |
| 2026-05-06 18:59 | 14.51058 | 121.01614 | 65 ft | 12 kts | 315° |
| 2026-05-06 18:59 | 14.51117 | 121.01552 | 64 ft | 11 kts | 315° |
| 2026-05-06 19:00 | 14.51168 | 121.01500 | 61 ft | 9 kts | 315° |
| 2026-05-06 19:00 | 14.51208 | 121.01458 | 65 ft | 7 kts | 314° |
| 2026-05-06 19:00 | 14.51240 | 121.01425 | 68 ft | 6 kts | 315° |
| 2026-05-06 19:00 | 14.51260 | 121.01417 | 66 ft | 4 kts | 354° |
| 2026-05-06 19:01 | 14.51312 | 121.01464 | 62 ft | 7 kts | 52° |
| 2026-05-06 19:01 | 14.51336 | 121.01496 | 65 ft | 4 kts | 51° |
| 2026-05-06 19:01 | 14.51350 | 121.01512 | 67 ft | 2 kts | 45° |
| 2026-05-06 19:01 | 14.51378 | 121.01541 | 63 ft | 7 kts | 45° |
| 2026-05-06 19:02 | 14.51413 | 121.01576 | 68 ft | 7 kts | 42° |
| 2026-05-06 19:02 | 14.51476 | 121.01625 | 64 ft | 13 kts | 37° |
| 2026-05-06 19:02 | 14.51529 | 121.01679 | 67 ft | 8 kts | 45° |
| 2026-05-06 19:02 | 14.51567 | 121.01717 | 63 ft | 8 kts | 44° |
| 2026-05-06 19:03 | 14.51601 | 121.01752 | 61 ft | 6 kts | 44° |
| 2026-05-06 19:03 | 14.51630 | 121.01778 | 65 ft | 8 kts | 35° |
| 2026-05-06 19:03 | 14.51701 | 121.01773 | 69 ft | 14 kts | 323° |
| 2026-05-06 19:03 | 14.51740 | 121.01733 | 69 ft | 4 kts | 316° |
| 2026-05-06 19:04 | 14.51755 | 121.01709 | 65 ft | 3 kts | 281° |
| 2026-05-06 19:04 | 14.51729 | 121.01684 | 67 ft | 3 kts | 208° |
| 2026-05-06 19:04 | 14.51712 | 121.01668 | 69 ft | 2 kts | 226° |
| 2026-05-06 19:04 | 14.51705 | 121.01661 | 61 ft | 2 kts | 225° |
| 2026-05-06 19:05 | 14.51700 | 121.01656 | 63 ft | 0 kts | 225° |